sensor_id;sensor_type;location;lat;lon;timestamp;pressure;altitude;pressure_sealevel;temperature;humidity
77366;BME280;66430;50.182;11.704;2023-12-14T00:01:04;93434.96;;;8.96;42.27
77366;BME280;66430;50.182;11.704;2023-12-14T00:03:30;93439.34;;;8.71;42.50
77366;BME280;66430;50.182;11.704;2023-12-14T00:05:55;93442.49;;;9.22;42.11
77366;BME280;66430;50.182;11.704;2023-12-14T00:08:20;93445.92;;;9.03;41.96
77366;BME280;66430;50.182;11.704;2023-12-14T00:10:45;93443.72;;;9.51;41.68
77366;BME280;66430;50.182;11.704;2023-12-14T00:13:11;93447.74;;;9.12;41.58
77366;BME280;66430;50.182;11.704;2023-12-14T00:15:36;93453.68;;;8.96;41.93
77366;BME280;66430;50.182;11.704;2023-12-14T00:18:02;93455.14;;;9.08;41.45
77366;BME280;66430;50.182;11.704;2023-12-14T00:20:27;93459.61;;;9.36;41.21
77366;BME280;66430;50.182;11.704;2023-12-14T00:22:53;93466.06;;;9.17;41.60
77366;BME280;66430;50.182;11.704;2023-12-14T00:25:18;93465.77;;;9.35;41.49
77366;BME280;66430;50.182;11.704;2023-12-14T00:27:43;93470.95;;;9.13;41.70
77366;BME280;66430;50.182;11.704;2023-12-14T00:30:10;93474.39;;;9.21;41.80
77366;BME280;66430;50.182;11.704;2023-12-14T00:32:35;93477.77;;;9.35;41.59
77366;BME280;66430;50.182;11.704;2023-12-14T00:35:00;93479.34;;;9.08;41.85
77366;BME280;66430;50.182;11.704;2023-12-14T00:37:26;93482.83;;;9.21;41.69
77366;BME280;66430;50.182;11.704;2023-12-14T00:39:51;93482.76;;;8.99;41.73
77366;BME280;66430;50.182;11.704;2023-12-14T00:42:17;93484.64;;;8.55;41.60
77366;BME280;66430;50.182;11.704;2023-12-14T00:44:42;93486.74;;;8.74;41.29
77366;BME280;66430;50.182;11.704;2023-12-14T00:47:08;93486.86;;;9.00;41.15
77366;BME280;66430;50.182;11.704;2023-12-14T00:49:33;93493.66;;;8.32;41.58
77366;BME280;66430;50.182;11.704;2023-12-14T00:51:59;93493.48;;;9.09;41.07
77366;BME280;66430;50.182;11.704;2023-12-14T00:54:25;93500.60;;;8.96;41.09
77366;BME280;66430;50.182;11.704;2023-12-14T00:56:50;93501.94;;;9.00;41.27
77366;BME280;66430;50.182;11.704;2023-12-14T00:59:17;93505.65;;;9.04;41.26
77366;BME280;66430;50.182;11.704;2023-12-14T01:01:41;93510.08;;;8.98;41.11
77366;BME280;66430;50.182;11.704;2023-12-14T01:04:07;93512.08;;;8.86;41.56
77366;BME280;66430;50.182;11.704;2023-12-14T01:06:31;93515.01;;;8.57;41.85
77366;BME280;66430;50.182;11.704;2023-12-14T01:08:57;93517.74;;;9.07;41.56
77366;BME280;66430;50.182;11.704;2023-12-14T01:11:23;93515.95;;;9.18;41.41
77366;BME280;66430;50.182;11.704;2023-12-14T01:13:49;93517.41;;;9.27;41.31
77366;BME280;66430;50.182;11.704;2023-12-14T01:16:14;93522.03;;;9.11;41.53
77366;BME280;66430;50.182;11.704;2023-12-14T01:18:40;93518.77;;;9.41;41.40
77366;BME280;66430;50.182;11.704;2023-12-14T01:21:05;93522.30;;;9.05;41.24
77366;BME280;66430;50.182;11.704;2023-12-14T01:23:31;93524.42;;;9.52;40.87
77366;BME280;66430;50.182;11.704;2023-12-14T01:25:57;93526.20;;;9.44;40.84
77366;BME280;66430;50.182;11.704;2023-12-14T01:28:22;93529.29;;;9.53;40.75
77366;BME280;66430;50.182;11.704;2023-12-14T01:30:47;93529.17;;;9.63;40.45
77366;BME280;66430;50.182;11.704;2023-12-14T01:33:13;93536.31;;;9.26;40.91
77366;BME280;66430;50.182;11.704;2023-12-14T01:35:38;93537.51;;;9.46;40.65
77366;BME280;66430;50.182;11.704;2023-12-14T01:38:04;93544.63;;;9.06;40.63
77366;BME280;66430;50.182;11.704;2023-12-14T01:40:30;93547.21;;;9.16;40.86
77366;BME280;66430;50.182;11.704;2023-12-14T01:43:06;93550.94;;;8.92;41.36
77366;BME280;66430;50.182;11.704;2023-12-14T01:45:22;93552.65;;;9.22;41.12
77366;BME280;66430;50.182;11.704;2023-12-14T01:47:46;93557.05;;;9.39;40.96
77366;BME280;66430;50.182;11.704;2023-12-14T01:50:12;93553.32;;;9.49;40.72
77366;BME280;66430;50.182;11.704;2023-12-14T01:52:37;93553.39;;;9.63;40.42
77366;BME280;66430;50.182;11.704;2023-12-14T01:55:03;93556.79;;;9.74;40.33
77366;BME280;66430;50.182;11.704;2023-12-14T01:57:29;93559.43;;;9.55;40.42
77366;BME280;66430;50.182;11.704;2023-12-14T01:59:53;93564.36;;;9.60;40.30
77366;BME280;66430;50.182;11.704;2023-12-14T02:02:19;93564.91;;;9.86;40.25
77366;BME280;66430;50.182;11.704;2023-12-14T02:04:44;93569.00;;;9.88;40.10
77366;BME280;66430;50.182;11.704;2023-12-14T02:07:09;93573.93;;;9.95;40.24
77366;BME280;66430;50.182;11.704;2023-12-14T02:09:35;93583.13;;;9.49;40.06
77366;BME280;66430;50.182;11.704;2023-12-14T02:12:01;93588.07;;;9.56;40.01
77366;BME280;66430;50.182;11.704;2023-12-14T02:14:26;93592.00;;;9.97;40.00
77366;BME280;66430;50.182;11.704;2023-12-14T02:16:51;93599.05;;;9.63;40.20
77366;BME280;66430;50.182;11.704;2023-12-14T02:19:17;93596.87;;;8.97;41.25
77366;BME280;66430;50.182;11.704;2023-12-14T02:21:42;93600.61;;;9.08;41.09
77366;BME280;66430;50.182;11.704;2023-12-14T02:24:08;93602.52;;;9.25;40.92
77366;BME280;66430;50.182;11.704;2023-12-14T02:26:33;93605.83;;;9.51;40.81
77366;BME280;66430;50.182;11.704;2023-12-14T02:28:59;93608.17;;;9.55;40.73
77366;BME280;66430;50.182;11.704;2023-12-14T02:31:24;93609.39;;;9.26;40.74
77366;BME280;66430;50.182;11.704;2023-12-14T02:33:49;93612.71;;;9.41;40.77
77366;BME280;66430;50.182;11.704;2023-12-14T02:36:15;93613.56;;;9.22;40.90
77366;BME280;66430;50.182;11.704;2023-12-14T02:38:40;93616.91;;;8.76;41.48
77366;BME280;66430;50.182;11.704;2023-12-14T02:41:06;93618.41;;;8.68;41.94
77366;BME280;66430;50.182;11.704;2023-12-14T02:43:30;93620.06;;;9.06;41.60
77366;BME280;66430;50.182;11.704;2023-12-14T02:45:57;93623.23;;;8.71;41.81
77366;BME280;66430;50.182;11.704;2023-12-14T02:48:22;93629.84;;;8.91;41.76
77366;BME280;66430;50.182;11.704;2023-12-14T02:50:48;93632.49;;;9.37;41.75
77366;BME280;66430;50.182;11.704;2023-12-14T02:53:13;93633.22;;;9.13;41.56
77366;BME280;66430;50.182;11.704;2023-12-14T02:55:39;93637.13;;;9.07;41.65
77366;BME280;66430;50.182;11.704;2023-12-14T02:58:04;93638.03;;;8.97;41.50
77366;BME280;66430;50.182;11.704;2023-12-14T03:00:29;93637.52;;;8.56;42.20
77366;BME280;66430;50.182;11.704;2023-12-14T03:02:54;93643.06;;;8.67;41.89
77366;BME280;66430;50.182;11.704;2023-12-14T03:05:19;93642.29;;;8.99;41.95
77366;BME280;66430;50.182;11.704;2023-12-14T03:07:45;93647.19;;;8.79;41.88
77366;BME280;66430;50.182;11.704;2023-12-14T03:10:11;93653.71;;;8.51;42.25
77366;BME280;66430;50.182;11.704;2023-12-14T03:12:36;93654.58;;;8.56;42.20
77366;BME280;66430;50.182;11.704;2023-12-14T03:15:02;93657.48;;;8.82;42.13
77366;BME280;66430;50.182;11.704;2023-12-14T03:17:27;93659.83;;;8.77;42.02
77366;BME280;66430;50.182;11.704;2023-12-14T03:19:53;93660.88;;;8.57;42.01
77366;BME280;66430;50.182;11.704;2023-12-14T03:22:18;93663.06;;;8.59;42.19
77366;BME280;66430;50.182;11.704;2023-12-14T03:24:44;93670.17;;;8.33;42.97
77366;BME280;66430;50.182;11.704;2023-12-14T03:27:09;93671.48;;;8.50;42.40
77366;BME280;66430;50.182;11.704;2023-12-14T03:29:35;93672.07;;;8.74;42.33
77366;BME280;66430;50.182;11.704;2023-12-14T03:32:01;93673.66;;;8.62;42.73
77366;BME280;66430;50.182;11.704;2023-12-14T03:34:26;93674.40;;;8.53;42.36
77366;BME280;66430;50.182;11.704;2023-12-14T03:36:51;93677.59;;;9.02;41.88
77366;BME280;66430;50.182;11.704;2023-12-14T03:39:17;93683.61;;;8.48;42.08
77366;BME280;66430;50.182;11.704;2023-12-14T03:41:43;93685.39;;;9.04;41.60
77366;BME280;66430;50.182;11.704;2023-12-14T03:44:09;93690.43;;;8.74;41.67
77366;BME280;66430;50.182;11.704;2023-12-14T03:46:34;93694.80;;;8.55;41.63
77366;BME280;66430;50.182;11.704;2023-12-14T03:48:59;93693.25;;;9.04;41.44
77366;BME280;66430;50.182;11.704;2023-12-14T03:51:24;93695.79;;;8.63;41.83
77366;BME280;66430;50.182;11.704;2023-12-14T03:53:50;93695.58;;;8.70;41.92
77366;BME280;66430;50.182;11.704;2023-12-14T03:56:17;93697.75;;;8.69;41.91
77366;BME280;66430;50.182;11.704;2023-12-14T03:58:42;93701.86;;;8.94;42.02
77366;BME280;66430;50.182;11.704;2023-12-14T04:01:07;93709.08;;;8.65;42.01
77366;BME280;66430;50.182;11.704;2023-12-14T04:03:32;93711.40;;;8.70;41.84
77366;BME280;66430;50.182;11.704;2023-12-14T04:05:58;93716.14;;;9.38;41.76
77366;BME280;66430;50.182;11.704;2023-12-14T04:08:23;93720.41;;;8.95;41.46
77366;BME280;66430;50.182;11.704;2023-12-14T04:10:49;93723.23;;;8.72;41.89
77366;BME280;66430;50.182;11.704;2023-12-14T04:13:14;93724.14;;;8.97;41.62
77366;BME280;66430;50.182;11.704;2023-12-14T04:15:39;93731.39;;;8.98;41.51
77366;BME280;66430;50.182;11.704;2023-12-14T04:18:07;93732.51;;;8.97;41.46
77366;BME280;66430;50.182;11.704;2023-12-14T04:20:30;93735.14;;;8.78;41.66
77366;BME280;66430;50.182;11.704;2023-12-14T04:22:55;93737.67;;;9.02;41.40
77366;BME280;66430;50.182;11.704;2023-12-14T04:25:21;93743.65;;;8.81;41.77
77366;BME280;66430;50.182;11.704;2023-12-14T04:27:47;93745.20;;;8.67;42.17
77366;BME280;66430;50.182;11.704;2023-12-14T04:30:13;93749.41;;;8.59;42.08
77366;BME280;66430;50.182;11.704;2023-12-14T04:32:38;93756.14;;;8.30;42.56
77366;BME280;66430;50.182;11.704;2023-12-14T04:35:04;93755.38;;;8.96;42.39
77366;BME280;66430;50.182;11.704;2023-12-14T04:37:29;93754.34;;;8.87;42.11
77366;BME280;66430;50.182;11.704;2023-12-14T04:39:54;93760.36;;;8.48;42.03
77366;BME280;66430;50.182;11.704;2023-12-14T04:42:19;93762.94;;;8.51;42.15
77366;BME280;66430;50.182;11.704;2023-12-14T04:44:45;93773.54;;;8.35;42.74
77366;BME280;66430;50.182;11.704;2023-12-14T04:47:11;93775.91;;;8.24;42.60
77366;BME280;66430;50.182;11.704;2023-12-14T04:49:36;93779.55;;;8.13;42.81
77366;BME280;66430;50.182;11.704;2023-12-14T04:52:01;93786.45;;;8.05;42.79
77366;BME280;66430;50.182;11.704;2023-12-14T04:54:26;93794.37;;;8.10;43.17
77366;BME280;66430;50.182;11.704;2023-12-14T04:56:55;93798.53;;;7.97;43.35
77366;BME280;66430;50.182;11.704;2023-12-14T04:59:17;93800.90;;;8.20;43.42
77366;BME280;66430;50.182;11.704;2023-12-14T05:01:43;93803.61;;;8.23;43.08
77366;BME280;66430;50.182;11.704;2023-12-14T05:04:09;93807.94;;;8.53;42.86
77366;BME280;66430;50.182;11.704;2023-12-14T05:06:34;93807.24;;;8.33;43.20
77366;BME280;66430;50.182;11.704;2023-12-14T05:08:59;93806.95;;;8.64;42.80
77366;BME280;66430;50.182;11.704;2023-12-14T05:11:24;93811.79;;;8.04;42.70
77366;BME280;66430;50.182;11.704;2023-12-14T05:13:51;93811.94;;;7.77;43.06
77366;BME280;66430;50.182;11.704;2023-12-14T05:16:16;93813.72;;;8.18;43.35
77366;BME280;66430;50.182;11.704;2023-12-14T05:18:41;93814.96;;;8.29;42.80
77366;BME280;66430;50.182;11.704;2023-12-14T05:21:07;93816.95;;;8.51;42.80
77366;BME280;66430;50.182;11.704;2023-12-14T05:23:33;93822.42;;;8.11;42.94
77366;BME280;66430;50.182;11.704;2023-12-14T05:25:58;93828.01;;;8.03;43.01
77366;BME280;66430;50.182;11.704;2023-12-14T05:28:24;93831.31;;;8.04;42.75
77366;BME280;66430;50.182;11.704;2023-12-14T05:30:52;93834.64;;;7.87;43.06
77366;BME280;66430;50.182;11.704;2023-12-14T05:33:14;93838.92;;;8.09;43.01
77366;BME280;66430;50.182;11.704;2023-12-14T05:35:40;93840.51;;;8.20;42.72
77366;BME280;66430;50.182;11.704;2023-12-14T05:38:05;93840.33;;;7.92;43.27
77366;BME280;66430;50.182;11.704;2023-12-14T05:40:31;93842.70;;;8.33;42.71
77366;BME280;66430;50.182;11.704;2023-12-14T05:42:57;93845.46;;;7.91;43.81
77366;BME280;66430;50.182;11.704;2023-12-14T05:45:23;93849.85;;;8.28;43.44
77366;BME280;66430;50.182;11.704;2023-12-14T05:47:48;93861.60;;;8.30;43.16
77366;BME280;66430;50.182;11.704;2023-12-14T05:50:14;93867.52;;;8.47;42.85
77366;BME280;66430;50.182;11.704;2023-12-14T05:52:39;93873.96;;;7.89;43.42
77366;BME280;66430;50.182;11.704;2023-12-14T05:55:06;93879.12;;;8.02;43.31
77366;BME280;66430;50.182;11.704;2023-12-14T05:57:30;93881.06;;;7.75;43.83
77366;BME280;66430;50.182;11.704;2023-12-14T05:59:56;93885.37;;;7.65;43.80
77366;BME280;66430;50.182;11.704;2023-12-14T06:02:21;93888.76;;;7.97;43.60
77366;BME280;66430;50.182;11.704;2023-12-14T06:04:46;93892.45;;;7.89;43.35
77366;BME280;66430;50.182;11.704;2023-12-14T06:07:14;93893.83;;;7.74;43.53
77366;BME280;66430;50.182;11.704;2023-12-14T06:09:39;93893.47;;;8.03;43.13
77366;BME280;66430;50.182;11.704;2023-12-14T06:12:04;93895.80;;;8.03;43.39
77366;BME280;66430;50.182;11.704;2023-12-14T06:14:29;93903.10;;;7.90;43.83
77366;BME280;66430;50.182;11.704;2023-12-14T06:16:54;93903.93;;;7.54;44.07
77366;BME280;66430;50.182;11.704;2023-12-14T06:19:20;93911.74;;;7.96;43.67
77366;BME280;66430;50.182;11.704;2023-12-14T06:21:45;93915.39;;;7.74;43.88
77366;BME280;66430;50.182;11.704;2023-12-14T06:24:10;93917.67;;;7.73;44.19
77366;BME280;66430;50.182;11.704;2023-12-14T06:26:41;93921.28;;;7.87;43.41
77366;BME280;66430;50.182;11.704;2023-12-14T06:29:02;93927.98;;;7.78;44.10
77366;BME280;66430;50.182;11.704;2023-12-14T06:31:27;93931.07;;;7.94;43.94
77366;BME280;66430;50.182;11.704;2023-12-14T06:33:53;93935.64;;;7.87;43.52
77366;BME280;66430;50.182;11.704;2023-12-14T06:36:18;93938.04;;;8.04;43.38
77366;BME280;66430;50.182;11.704;2023-12-14T06:38:44;93941.48;;;8.45;42.83
77366;BME280;66430;50.182;11.704;2023-12-14T06:41:19;93945.10;;;8.42;43.43
77366;BME280;66430;50.182;11.704;2023-12-14T06:43:35;93946.10;;;7.85;43.68
77366;BME280;66430;50.182;11.704;2023-12-14T06:46:00;93950.44;;;8.15;43.26
77366;BME280;66430;50.182;11.704;2023-12-14T06:48:25;93952.10;;;7.58;43.84
77366;BME280;66430;50.182;11.704;2023-12-14T06:50:51;93956.39;;;7.98;43.85
77366;BME280;66430;50.182;11.704;2023-12-14T06:53:17;93959.62;;;8.17;43.58
77366;BME280;66430;50.182;11.704;2023-12-14T06:55:42;93966.12;;;8.50;42.94
77366;BME280;66430;50.182;11.704;2023-12-14T06:58:08;93969.77;;;8.81;42.74
77366;BME280;66430;50.182;11.704;2023-12-14T07:00:33;93974.77;;;8.66;42.36
77366;BME280;66430;50.182;11.704;2023-12-14T07:02:58;93980.70;;;8.62;42.15
77366;BME280;66430;50.182;11.704;2023-12-14T07:05:24;93982.77;;;8.61;42.48
77366;BME280;66430;50.182;11.704;2023-12-14T07:07:49;93989.95;;;8.35;42.25
77366;BME280;66430;50.182;11.704;2023-12-14T07:10:14;93994.44;;;8.23;42.94
77366;BME280;66430;50.182;11.704;2023-12-14T07:12:40;93999.95;;;8.63;42.69
77366;BME280;66430;50.182;11.704;2023-12-14T07:15:06;94007.87;;;8.38;43.14
77366;BME280;66430;50.182;11.704;2023-12-14T07:17:31;94010.82;;;8.56;43.03
77366;BME280;66430;50.182;11.704;2023-12-14T07:19:56;94014.53;;;8.56;42.70
77366;BME280;66430;50.182;11.704;2023-12-14T07:22:22;94017.73;;;8.54;42.56
77366;BME280;66430;50.182;11.704;2023-12-14T07:24:47;94021.83;;;8.67;42.27
77366;BME280;66430;50.182;11.704;2023-12-14T07:27:13;94025.20;;;8.73;42.31
77366;BME280;66430;50.182;11.704;2023-12-14T07:29:38;94030.69;;;8.61;42.20
77366;BME280;66430;50.182;11.704;2023-12-14T07:32:04;94031.93;;;9.04;42.03
77366;BME280;66430;50.182;11.704;2023-12-14T07:34:29;94038.53;;;8.65;42.24
77366;BME280;66430;50.182;11.704;2023-12-14T07:36:55;94042.50;;;9.12;41.93
77366;BME280;66430;50.182;11.704;2023-12-14T07:39:21;94049.62;;;8.78;42.23
77366;BME280;66430;50.182;11.704;2023-12-14T07:41:46;94055.42;;;8.72;42.12
77366;BME280;66430;50.182;11.704;2023-12-14T07:44:11;94063.26;;;8.44;42.53
77366;BME280;66430;50.182;11.704;2023-12-14T07:46:37;94066.24;;;8.98;42.33
77366;BME280;66430;50.182;11.704;2023-12-14T07:49:02;94068.65;;;8.76;42.24
77366;BME280;66430;50.182;11.704;2023-12-14T07:51:27;94073.56;;;8.79;42.12
77366;BME280;66430;50.182;11.704;2023-12-14T07:53:53;94076.36;;;8.76;42.36
77366;BME280;66430;50.182;11.704;2023-12-14T07:56:18;94078.02;;;8.79;42.41
77366;BME280;66430;50.182;11.704;2023-12-14T07:58:44;94080.71;;;8.70;42.13
77366;BME280;66430;50.182;11.704;2023-12-14T08:01:09;94082.90;;;8.97;42.34
77366;BME280;66430;50.182;11.704;2023-12-14T08:03:35;94092.06;;;8.94;42.11
77366;BME280;66430;50.182;11.704;2023-12-14T08:06:00;94099.24;;;9.10;42.11
77366;BME280;66430;50.182;11.704;2023-12-14T08:08:25;94098.14;;;9.12;41.85
77366;BME280;66430;50.182;11.704;2023-12-14T08:10:51;94101.86;;;9.16;41.86
77366;BME280;66430;50.182;11.704;2023-12-14T08:13:17;94104.11;;;9.07;41.74
77366;BME280;66430;50.182;11.704;2023-12-14T08:15:41;94107.49;;;9.01;42.05
77366;BME280;66430;50.182;11.704;2023-12-14T08:18:07;94112.29;;;9.07;42.15
77366;BME280;66430;50.182;11.704;2023-12-14T08:20:33;94113.77;;;9.11;41.81
77366;BME280;66430;50.182;11.704;2023-12-14T08:22:58;94117.06;;;9.12;42.09
77366;BME280;66430;50.182;11.704;2023-12-14T08:25:23;94120.16;;;9.30;41.84
77366;BME280;66430;50.182;11.704;2023-12-14T08:27:49;94122.23;;;9.29;41.75
77366;BME280;66430;50.182;11.704;2023-12-14T08:30:14;94126.62;;;9.37;41.52
77366;BME280;66430;50.182;11.704;2023-12-14T08:32:39;94135.26;;;9.27;41.49
77366;BME280;66430;50.182;11.704;2023-12-14T08:35:06;94137.23;;;9.49;41.41
77366;BME280;66430;50.182;11.704;2023-12-14T08:37:30;94137.65;;;9.59;41.43
77366;BME280;66430;50.182;11.704;2023-12-14T08:39:56;94144.06;;;9.66;41.27
77366;BME280;66430;50.182;11.704;2023-12-14T08:42:21;94149.87;;;9.77;41.05
77366;BME280;66430;50.182;11.704;2023-12-14T08:44:47;94153.21;;;9.78;41.01
77366;BME280;66430;50.182;11.704;2023-12-14T08:47:12;94153.84;;;9.40;41.05
77366;BME280;66430;50.182;11.704;2023-12-14T08:49:37;94159.08;;;9.35;41.34
77366;BME280;66430;50.182;11.704;2023-12-14T08:52:04;94165.34;;;9.21;41.52
77366;BME280;66430;50.182;11.704;2023-12-14T08:54:28;94167.61;;;9.34;41.76
77366;BME280;66430;50.182;11.704;2023-12-14T08:56:54;94176.95;;;9.14;41.88
77366;BME280;66430;50.182;11.704;2023-12-14T08:59:19;94181.12;;;8.99;42.04
77366;BME280;66430;50.182;11.704;2023-12-14T09:01:44;94181.61;;;9.03;41.73
77366;BME280;66430;50.182;11.704;2023-12-14T09:04:09;94183.20;;;9.32;42.02
77366;BME280;66430;50.182;11.704;2023-12-14T09:06:35;94185.95;;;9.47;41.70
77366;BME280;66430;50.182;11.704;2023-12-14T09:09:01;94187.92;;;9.38;41.80
77366;BME280;66430;50.182;11.704;2023-12-14T09:11:26;94194.12;;;9.38;41.70
77366;BME280;66430;50.182;11.704;2023-12-14T09:13:51;94197.64;;;9.43;41.75
77366;BME280;66430;50.182;11.704;2023-12-14T09:16:17;94202.63;;;9.23;41.76
77366;BME280;66430;50.182;11.704;2023-12-14T09:18:42;94201.51;;;9.44;41.81
77366;BME280;66430;50.182;11.704;2023-12-14T09:21:08;94205.22;;;9.66;41.52
77366;BME280;66430;50.182;11.704;2023-12-14T09:23:33;94208.91;;;9.80;41.45
77366;BME280;66430;50.182;11.704;2023-12-14T09:25:59;94214.45;;;9.58;41.80
77366;BME280;66430;50.182;11.704;2023-12-14T09:28:24;94213.78;;;9.47;41.62
77366;BME280;66430;50.182;11.704;2023-12-14T09:30:49;94213.57;;;9.78;41.24
77366;BME280;66430;50.182;11.704;2023-12-14T09:33:15;94215.27;;;9.72;41.29
77366;BME280;66430;50.182;11.704;2023-12-14T09:35:40;94215.33;;;10.03;41.14
77366;BME280;66430;50.182;11.704;2023-12-14T09:38:06;94220.52;;;9.40;41.53
77366;BME280;66430;50.182;11.704;2023-12-14T09:40:31;94223.57;;;9.65;41.62
77366;BME280;66430;50.182;11.704;2023-12-14T09:42:56;94226.48;;;9.52;41.79
77366;BME280;66430;50.182;11.704;2023-12-14T09:45:24;94230.82;;;9.67;41.39
77366;BME280;66430;50.182;11.704;2023-12-14T09:47:48;94237.75;;;9.29;41.80
77366;BME280;66430;50.182;11.704;2023-12-14T09:50:12;94240.78;;;9.42;41.46
77366;BME280;66430;50.182;11.704;2023-12-14T09:52:38;94239.59;;;9.68;41.50
77366;BME280;66430;50.182;11.704;2023-12-14T09:55:04;94243.90;;;9.97;41.36
77366;BME280;66430;50.182;11.704;2023-12-14T09:57:28;94245.32;;;9.66;41.01
77366;BME280;66430;50.182;11.704;2023-12-14T09:59:54;94248.02;;;9.73;41.32
77366;BME280;66430;50.182;11.704;2023-12-14T10:02:19;94252.81;;;9.99;40.90
77366;BME280;66430;50.182;11.704;2023-12-14T10:04:46;94253.04;;;9.87;41.58
77366;BME280;66430;50.182;11.704;2023-12-14T10:07:11;94257.11;;;9.62;41.24
77366;BME280;66430;50.182;11.704;2023-12-14T10:09:37;94261.35;;;9.58;41.63
77366;BME280;66430;50.182;11.704;2023-12-14T10:12:04;94260.34;;;9.48;41.62
77366;BME280;66430;50.182;11.704;2023-12-14T10:14:27;94256.44;;;9.84;41.71
77366;BME280;66430;50.182;11.704;2023-12-14T10:16:53;94261.10;;;9.70;41.67
77366;BME280;66430;50.182;11.704;2023-12-14T10:19:19;94264.91;;;9.57;41.86
77366;BME280;66430;50.182;11.704;2023-12-14T10:21:44;94264.99;;;9.21;42.08
77366;BME280;66430;50.182;11.704;2023-12-14T10:24:09;94266.65;;;9.12;42.27
77366;BME280;66430;50.182;11.704;2023-12-14T10:26:35;94264.65;;;9.78;41.95
77366;BME280;66430;50.182;11.704;2023-12-14T10:29:00;94266.48;;;9.71;41.83
77366;BME280;66430;50.182;11.704;2023-12-14T10:31:25;94264.81;;;9.73;41.53
77366;BME280;66430;50.182;11.704;2023-12-14T10:33:51;94265.02;;;9.90;41.11
77366;BME280;66430;50.182;11.704;2023-12-14T10:36:18;94271.91;;;9.79;41.15
77366;BME280;66430;50.182;11.704;2023-12-14T10:38:43;94279.22;;;9.86;41.32
77366;BME280;66430;50.182;11.704;2023-12-14T10:41:08;94281.82;;;9.42;41.53
77366;BME280;66430;50.182;11.704;2023-12-14T10:43:34;94282.90;;;9.56;41.49
77366;BME280;66430;50.182;11.704;2023-12-14T10:45:59;94285.13;;;9.49;42.14
77366;BME280;66430;50.182;11.704;2023-12-14T10:48:24;94289.72;;;9.56;41.88
77366;BME280;66430;50.182;11.704;2023-12-14T10:50:50;94286.26;;;9.25;40.76
77366;BME280;66430;50.182;11.704;2023-12-14T10:53:15;94289.31;;;9.94;40.76
77366;BME280;66430;50.182;11.704;2023-12-14T10:55:43;94295.57;;;9.71;41.01
77366;BME280;66430;50.182;11.704;2023-12-14T10:58:07;94296.11;;;9.38;41.52
77366;BME280;66430;50.182;11.704;2023-12-14T11:00:31;94297.56;;;9.49;41.08
77366;BME280;66430;50.182;11.704;2023-12-14T11:02:58;94303.47;;;9.76;41.38
77366;BME280;66430;50.182;11.704;2023-12-14T11:05:23;94304.44;;;9.24;42.08
77366;BME280;66430;50.182;11.704;2023-12-14T11:07:50;94308.61;;;9.54;41.73
77366;BME280;66430;50.182;11.704;2023-12-14T11:10:13;94310.27;;;8.92;42.48
77366;BME280;66430;50.182;11.704;2023-12-14T11:12:50;94315.75;;;9.85;41.77
77366;BME280;66430;50.182;11.704;2023-12-14T11:15:05;94315.99;;;9.14;41.97
77366;BME280;66430;50.182;11.704;2023-12-14T11:17:30;94320.20;;;9.31;41.80
77366;BME280;66430;50.182;11.704;2023-12-14T11:19:55;94322.09;;;8.95;42.47
77366;BME280;66430;50.182;11.704;2023-12-14T11:22:26;94326.15;;;9.16;42.26
77366;BME280;66430;50.182;11.704;2023-12-14T11:24:52;94322.67;;;9.03;42.87
77366;BME280;66430;50.182;11.704;2023-12-14T11:27:12;94323.75;;;9.00;42.69
77366;BME280;66430;50.182;11.704;2023-12-14T11:29:38;94320.95;;;8.81;43.34
77366;BME280;66430;50.182;11.704;2023-12-14T11:32:05;94324.85;;;8.85;43.03
77366;BME280;66430;50.182;11.704;2023-12-14T11:34:29;94330.00;;;9.08;42.81
77366;BME280;66430;50.182;11.704;2023-12-14T11:36:55;94332.61;;;8.30;43.69
77366;BME280;66430;50.182;11.704;2023-12-14T11:39:19;94338.47;;;8.92;42.90
77366;BME280;66430;50.182;11.704;2023-12-14T11:44:10;94338.38;;;8.84;43.05
77366;BME280;66430;50.182;11.704;2023-12-14T11:46:36;94341.10;;;9.38;42.62
77366;BME280;66430;50.182;11.704;2023-12-14T11:49:02;94340.85;;;8.90;42.72
77366;BME280;66430;50.182;11.704;2023-12-14T11:51:27;94340.14;;;8.56;43.60
77366;BME280;66430;50.182;11.704;2023-12-14T11:53:52;94344.57;;;8.42;43.91
77366;BME280;66430;50.182;11.704;2023-12-14T11:56:19;94345.07;;;8.94;43.04
77366;BME280;66430;50.182;11.704;2023-12-14T11:58:44;94344.04;;;9.02;43.19
77366;BME280;66430;50.182;11.704;2023-12-14T12:01:14;94347.92;;;9.18;42.72
77366;BME280;66430;50.182;11.704;2023-12-14T12:03:34;94350.47;;;8.84;43.37
77366;BME280;66430;50.182;11.704;2023-12-14T12:06:00;94350.84;;;8.95;43.22
77366;BME280;66430;50.182;11.704;2023-12-14T12:08:25;94351.74;;;8.53;43.24
77366;BME280;66430;50.182;11.704;2023-12-14T12:10:50;94350.62;;;8.46;43.25
77366;BME280;66430;50.182;11.704;2023-12-14T12:13:17;94355.32;;;8.60;43.51
77366;BME280;66430;50.182;11.704;2023-12-14T12:15:41;94356.37;;;8.57;43.45
77366;BME280;66430;50.182;11.704;2023-12-14T12:18:08;94357.99;;;8.57;43.39
77366;BME280;66430;50.182;11.704;2023-12-14T12:20:33;94356.21;;;9.26;42.88
77366;BME280;66430;50.182;11.704;2023-12-14T12:22:58;94356.68;;;8.70;42.90
77366;BME280;66430;50.182;11.704;2023-12-14T12:25:23;94361.70;;;8.38;43.31
77366;BME280;66430;50.182;11.704;2023-12-14T12:27:49;94367.15;;;8.31;43.61
77366;BME280;66430;50.182;11.704;2023-12-14T12:30:14;94372.85;;;8.13;43.65
77366;BME280;66430;50.182;11.704;2023-12-14T12:32:39;94374.28;;;8.47;42.86
77366;BME280;66430;50.182;11.704;2023-12-14T12:35:06;94379.75;;;8.43;43.24
77366;BME280;66430;50.182;11.704;2023-12-14T12:37:30;94377.65;;;8.59;42.92
77366;BME280;66430;50.182;11.704;2023-12-14T12:39:56;94380.54;;;7.97;43.73
77366;BME280;66430;50.182;11.704;2023-12-14T12:42:21;94379.42;;;8.41;43.41
77366;BME280;66430;50.182;11.704;2023-12-14T12:44:47;94380.36;;;8.05;43.68
77366;BME280;66430;50.182;11.704;2023-12-14T12:47:13;94380.88;;;8.47;43.48
77366;BME280;66430;50.182;11.704;2023-12-14T12:49:38;94386.15;;;8.67;43.49
77366;BME280;66430;50.182;11.704;2023-12-14T12:52:04;94387.75;;;8.21;43.09